Time;durP1;ratioP1;P1;durP2;ratioP2;P2;SDS_P1;SDS_P2;PMS_P1;PMS_P2;Temp;Humidity;BMP_temperature;BMP_pressure;BME280_temperature;BME280_humidity;BME280_pressure;Samples;Min_cycle;Max_cycle;Signal;HPM_P1;HPM_P2
2022/12/26 00:01:55;;;;;;;20.32;14.95;;;;;;;8.07;69.98;102407.02;1717294;83;21051;-57
2022/12/26 00:04:22;;;;;;;31.60;15.75;;;;;;;8.07;70.00;102408.32;1715122;83;21031;-57
2022/12/26 00:06:50;;;;;;;21.93;16.30;;;;;;;8.07;69.95;102418.69;1715442;83;21538;-58
2022/12/26 00:09:17;;;;;;;20.77;15.43;;;;;;;8.06;69.93;102419.52;1716545;83;21029;-58
2022/12/26 00:11:46;;;;;;;19.60;16.27;;;;;;;8.03;69.96;102419.50;1715901;83;21087;-58
2022/12/26 00:14:13;;;;;;;18.98;15.28;;;;;;;8.05;69.91;102424.69;1717229;83;21035;-58
2022/12/26 00:16:41;;;;;;;20.45;16.32;;;;;;;8.04;69.94;102431.59;1715768;81;21055;-58
2022/12/26 00:19:09;;;;;;;17.92;15.50;;;;;;;8.04;69.94;102427.70;1714205;83;21028;-58
2022/12/26 00:21:36;;;;;;;17.12;14.80;;;;;;;8.04;69.87;102431.59;1714197;81;21570;-58
2022/12/26 00:24:03;;;;;;;17.23;13.80;;;;;;;8.02;69.90;102437.59;1714313;83;21075;-58
2022/12/26 00:26:31;;;;;;;18.73;14.70;;;;;;;8.00;70.04;102441.47;1714161;81;21309;-58
2022/12/26 00:28:58;;;;;;;18.12;13.95;;;;;;;8.00;69.97;102449.66;1712478;82;21051;-58
2022/12/26 00:31:29;;;;;;;16.17;14.35;;;;;;;8.00;70.13;102461.33;1715461;83;21082;-58
2022/12/26 00:33:56;;;;;;;15.05;12.90;;;;;;;7.98;70.25;102461.31;1717606;83;21055;-58
2022/12/26 00:36:29;;;;;;;15.25;12.65;;;;;;;8.01;70.18;102465.27;1717275;83;21079;-57
2022/12/26 00:38:57;;;;;;;15.65;14.05;;;;;;;8.02;70.09;102458.33;1716702;83;21035;-58
2022/12/26 00:41:24;;;;;;;15.65;13.18;;;;;;;8.00;70.06;102460.91;1692470;83;21027;-58
2022/12/26 00:43:51;;;;;;;15.50;12.88;;;;;;;8.00;69.90;102455.72;1714764;81;21054;-58
2022/12/26 00:46:18;;;;;;;13.30;12.00;;;;;;;7.95;70.04;102457.39;1713907;83;21507;-58
2022/12/26 00:48:45;;;;;;;14.78;11.30;;;;;;;7.90;70.08;102465.50;1714310;81;21051;-58
2022/12/26 00:51:11;;;;;;;14.78;11.88;;;;;;;7.89;70.11;102462.45;1714916;83;21086;-58
2022/12/26 00:53:38;;;;;;;13.30;11.48;;;;;;;7.88;70.18;102469.79;1717346;81;21059;-58
2022/12/26 00:56:06;;;;;;;15.23;11.43;;;;;;;7.87;70.13;102471.91;1717482;83;21036;-58
2022/12/26 00:58:33;;;;;;;11.30;10.10;;;;;;;7.87;70.12;102473.21;1713012;83;21054;-58
2022/12/26 01:01:14;;;;;;;13.00;11.08;;;;;;;7.87;70.15;102471.91;1717437;83;21000;-58
2022/12/26 01:03:41;;;;;;;11.50;9.75;;;;;;;7.86;69.97;102467.59;1659909;85;21071;-58
2022/12/26 01:06:08;;;;;;;12.45;10.63;;;;;;;7.84;70.00;102460.22;1632733;86;21062;-58
2022/12/26 01:08:35;;;;;;;11.90;10.48;;;;;;;7.83;70.02;102472.71;1653275;85;21544;-58
2022/12/26 01:11:05;;;;;;;13.05;10.58;;;;;;;7.83;70.08;102471.42;1658191;85;21057;-58
2022/12/26 01:13:32;;;;;;;12.40;11.10;;;;;;;7.87;70.15;102474.51;1659391;85;21081;-58
2022/12/26 01:15:58;;;;;;;13.38;11.12;;;;;;;7.88;69.99;102473.67;1659091;85;21113;-58
2022/12/26 01:18:25;;;;;;;12.25;10.65;;;;;;;7.87;69.82;102477.09;1659473;84;21097;-58
2022/12/26 01:20:57;;;;;;;10.30;9.18;;;;;;;7.83;69.74;102472.71;1660681;85;21074;-57
2022/12/26 01:23:23;;;;;;;11.38;9.58;;;;;;;7.80;69.96;102470.09;1655396;85;20990;-58
2022/12/26 01:25:50;;;;;;;12.33;10.55;;;;;;;7.80;69.92;102471.39;1660662;85;21593;-57
2022/12/26 01:28:16;;;;;;;10.63;9.30;;;;;;;7.79;69.93;102463.14;1656964;84;21102;-58
2022/12/26 01:30:43;;;;;;;10.53;9.43;;;;;;;7.80;69.96;102467.50;1659620;85;21581;-58
2022/12/26 01:33:10;;;;;;;11.45;9.18;;;;;;;7.80;69.89;102461.02;1636887;85;21646;-58
2022/12/26 01:35:37;;;;;;;11.80;10.20;;;;;;;7.82;69.99;102460.62;1640585;85;21094;-58
2022/12/26 01:38:03;;;;;;;11.45;9.98;;;;;;;7.82;69.90;102459.73;1632093;86;21043;-58
2022/12/26 01:40:30;;;;;;;11.90;10.28;;;;;;;7.82;69.89;102461.91;1636598;86;21252;-58
2022/12/26 01:42:57;;;;;;;12.13;10.85;;;;;;;7.83;69.82;102458.46;1660303;85;21065;-58
2022/12/26 01:45:29;;;;;;;12.05;10.68;;;;;;;7.83;69.81;102459.75;1661060;84;21061;-58
2022/12/26 01:48:04;;;;;;;14.70;12.63;;;;;;;7.84;69.87;102458.92;1632520;87;21073;-58
2022/12/26 01:50:44;;;;;;;14.53;11.83;;;;;;;7.86;69.89;102468.89;1599213;88;21624;-58
2022/12/26 01:53:21;;;;;;;14.25;12.55;;;;;;;7.87;69.80;102466.73;1626639;86;21120;-58
2022/12/26 01:55:57;;;;;;;15.35;12.33;;;;;;;7.87;69.86;102465.44;1534874;92;21141;-58
2022/12/26 01:58:31;;;;;;;14.45;12.55;;;;;;;7.85;69.87;102467.13;1529248;93;21209;-58
2022/12/26 02:00:58;;;;;;;15.63;13.40;;;;;;;7.88;69.65;102465.91;1514021;92;21113;-57
2022/12/26 02:05:55;;;;;;;14.38;12.18;;;;;;;7.82;69.61;102454.14;1492633;95;21138;-57
2022/12/26 02:08:26;;;;;;;15.05;13.45;;;;;;;7.85;69.55;102465.84;1498187;94;21106;-57
2022/12/26 02:10:58;;;;;;;16.10;12.85;;;;;;;7.84;69.43;102468.00;1505725;94;21105;-58
2022/12/26 02:13:24;;;;;;;15.35;12.53;;;;;;;7.83;69.55;102466.69;1467928;96;21131;-57
2022/12/26 02:15:51;;;;;;;16.62;13.32;;;;;;;7.83;69.53;102470.13;1488666;96;21115;-57
2022/12/26 02:18:18;;;;;;;15.45;12.55;;;;;;;7.83;69.50;102465.39;1468992;97;21130;-57
2022/12/26 02:21:32;;;;;;;13.40;11.75;;;;;;;7.83;69.48;102472.71;1486876;94;21137;-57
2022/12/26 02:24:38;;;;;;;14.73;12.03;;;;;;;7.83;69.47;102468.83;1469826;97;21678;-57
2022/12/26 02:27:46;;;;;;;14.55;12.07;;;;;;;7.75;69.53;102467.83;1479410;96;21601;-57
2022/12/26 02:30:48;;;;;;;14.65;12.60;;;;;;;7.60;70.10;102465.41;1469443;97;21158;-58
2022/12/26 02:33:49;;;;;;;;;;;;;;;7.59;70.19;102474.89;1474855;97;21179;-57
2022/12/26 02:36:57;;;;;;;14.13;12.28;;;;;;;7.71;69.77;102471.22;1473959;95;20229;-57
2022/12/26 02:39:44;;;;;;;15.50;12.50;;;;;;;7.78;69.46;102478.26;1480580;96;21110;-57
2022/12/26 02:42:54;;;;;;;15.32;12.58;;;;;;;7.82;69.45;102480.06;1480074;96;21196;-57
2022/12/26 02:48:41;;;;;;;14.83;12.80;;;;;;;7.88;69.15;102489.64;1478348;96;21128;-58
2022/12/26 03:15:00;;;;;;;14.83;12.58;;;;;;;7.71;69.35;102501.02;1500669;94;21156;-58
2022/12/26 03:17:31;;;;;;;17.15;13.62;;;;;;;7.73;69.43;102510.13;1499243;94;21163;-58
2022/12/26 03:20:02;;;;;;;16.45;13.30;;;;;;;7.72;69.43;102515.73;1426852;99;21200;-57
2022/12/26 03:22:40;;;;;;;14.30;11.73;;;;;;;7.71;69.50;102511.37;1431467;99;21146;-58
2022/12/26 03:28:10;;;;;;;16.82;12.85;;;;;;;7.70;69.68;102522.61;1444352;98;21120;-57
2022/12/26 03:30:49;;;;;;;19.65;14.45;;;;;;;7.72;69.78;102521.33;1453164;98;21135;-57
2022/12/26 03:36:05;;;;;;;14.95;12.45;;;;;;;7.74;69.79;102530.88;1480116;97;21160;-57
2022/12/26 03:38:50;;;;;;;18.73;13.72;;;;;;;7.77;69.83;102546.91;1476407;97;21608;-57
2022/12/26 04:19:39;;;;;;;21.57;15.03;;;;;;;7.76;70.15;102569.36;1473168;95;21698;-57
2022/12/26 04:45:09;;;;;;;14.23;11.43;;;;;;;7.80;70.00;102576.34;1540620;91;21078;-57
2022/12/26 04:47:36;;;;;;;12.80;11.18;;;;;;;7.81;69.87;102572.89;1504938;92;21074;-58
2022/12/26 04:50:13;;;;;;;12.37;11.05;;;;;;;7.80;69.54;102571.57;1533857;93;21077;-58
2022/12/26 04:52:57;;;;;;;12.30;10.68;;;;;;;7.79;69.58;102562.06;1533340;93;21082;-57
2022/12/26 04:55:27;;;;;;;12.20;10.90;;;;;;;7.81;69.35;102563.81;1536077;91;21057;-57
2022/12/26 04:57:53;;;;;;;12.85;10.48;;;;;;;7.82;69.21;102576.36;1565268;92;21131;-57
2022/12/26 05:00:22;;;;;;;11.55;10.10;;;;;;;7.79;69.03;102574.58;1565853;92;21571;-57
2022/12/26 05:11:23;;;;;;;11.48;9.50;;;;;;;7.64;68.91;102588.56;1587627;90;21128;-57
2022/12/26 05:13:53;;;;;;;12.07;10.28;;;;;;;7.60;69.13;102597.12;1565933;90;21118;-57
2022/12/26 05:30:19;;;;;;;10.43;9.33;;;;;;;7.61;68.97;102601.44;1502994;94;21120;-57
2022/12/26 05:35:33;;;;;;;10.72;9.65;;;;;;;7.64;68.87;102609.70;1502293;93;21129;-57
2022/12/26 05:38:00;;;;;;;10.78;9.68;;;;;;;7.64;68.74;102618.36;1501619;94;21029;-57
2022/12/26 05:40:28;;;;;;;10.00;9.00;;;;;;;7.62;68.69;102612.27;1513138;92;21098;-57
2022/12/26 05:42:55;;;;;;;9.88;8.88;;;;;;;7.60;68.58;102608.78;1498474;94;21621;-57
2022/12/26 05:45:21;;;;;;;10.13;9.03;;;;;;;7.58;68.58;102620.83;1504059;93;21137;-57
2022/12/26 05:47:48;;;;;;;11.60;9.30;;;;;;;7.58;68.51;102628.59;1501007;94;21105;-57
2022/12/26 05:50:15;;;;;;;10.70;9.15;;;;;;;7.56;68.40;102632.00;1507316;93;21150;-59
2022/12/26 05:52:42;;;;;;;9.53;8.63;;;;;;;7.53;68.37;102631.50;1500041;94;21639;-57
2022/12/26 05:55:09;;;;;;;9.98;8.50;;;;;;;7.53;68.28;102632.80;1553484;89;21085;-57
2022/12/26 05:57:36;;;;;;;11.15;9.45;;;;;;;7.49;68.25;102630.98;1575518;89;21106;-57
2022/12/26 06:00:05;;;;;;;9.63;8.68;;;;;;;7.46;68.33;102633.50;1603502;88;21629;-57
2022/12/26 06:02:31;;;;;;;9.73;8.73;;;;;;;7.47;68.34;102640.45;1590273;89;21121;-57
2022/12/26 06:04:58;;;;;;;9.43;8.43;;;;;;;7.44;68.29;102640.36;1576879;91;21546;-58
2022/12/26 06:07:24;;;;;;;9.10;7.92;;;;;;;7.44;68.46;102633.89;1603545;88;21063;-57
2022/12/26 06:09:51;;;;;;;9.73;8.60;;;;;;;7.47;68.43;102632.67;1603497;89;21105;-57
2022/12/26 06:12:18;;;;;;;8.48;7.60;;;;;;;7.50;68.51;102645.67;1575078;89;21165;-57
2022/12/26 06:14:44;;;;;;;9.85;8.85;;;;;;;7.54;68.40;102639.74;1603691;88;21561;-58
2022/12/26 06:17:13;;;;;;;9.20;8.30;;;;;;;7.57;68.30;102641.08;1592409;88;21141;-57
2022/12/26 06:19:40;;;;;;;9.53;8.50;;;;;;;7.58;67.88;102645.44;1577037;91;21725;-57
2022/12/26 06:22:06;;;;;;;8.73;7.87;;;;;;;7.57;67.77;102650.56;1603374;88;21123;-57
2022/12/26 06:24:33;;;;;;;9.60;8.60;;;;;;;7.55;67.90;102657.02;1608849;85;21610;-57
2022/12/26 06:27:00;;;;;;;8.95;8.05;;;;;;;7.57;67.90;102655.33;1696493;83;21060;-57
2022/12/26 06:29:27;;;;;;;8.98;8.13;;;;;;;7.60;67.89;102654.53;1691747;84;21000;-57
2022/12/26 06:31:53;;;;;;;8.73;7.83;;;;;;;7.61;67.74;102654.55;1697211;84;21068;-57
2022/12/26 06:34:20;;;;;;;9.28;8.38;;;;;;;7.63;67.66;102660.64;1698002;84;21075;-58
2022/12/26 06:36:47;;;;;;;8.98;8.08;;;;;;;7.68;67.69;102667.22;1698690;84;21571;-57
2022/12/26 06:39:14;;;;;;;9.15;7.83;;;;;;;7.69;67.39;102665.94;1699590;84;21032;-57
2022/12/26 06:41:41;;;;;;;10.30;8.40;;;;;;;7.68;67.24;102668.09;1699403;82;21088;-57
2022/12/26 06:44:09;;;;;;;9.03;7.80;;;;;;;7.69;67.39;102678.02;1696910;84;21036;-57
2022/12/26 06:46:36;;;;;;;8.70;7.90;;;;;;;7.69;67.36;102677.59;1696369;83;21020;-58
2022/12/26 06:49:02;;;;;;;9.78;7.87;;;;;;;7.71;67.37;102690.16;1696458;84;21544;-57
2022/12/26 06:51:29;;;;;;;7.92;7.12;;;;;;;7.73;67.27;102688.48;1696272;83;21064;-57
2022/12/26 06:53:55;;;;;;;8.58;7.45;;;;;;;7.74;67.18;102690.66;1696462;82;21056;-57
2022/12/26 06:56:24;;;;;;;7.90;7.10;;;;;;;7.75;67.37;102691.98;1690303;84;21540;-57
2022/12/26 06:58:57;;;;;;;7.80;7.10;;;;;;;7.76;67.13;102680.78;1696393;84;21503;-57
2022/12/26 07:01:23;;;;;;;8.13;7.33;;;;;;;7.74;66.91;102686.36;1641245;85;21098;-58
2022/12/26 07:03:52;;;;;;;8.15;7.30;;;;;;;7.70;67.11;102680.66;1668356;85;21002;-57
2022/12/26 07:06:29;;;;;;;8.60;7.67;;;;;;;7.72;67.19;102690.63;1674243;85;21050;-57
2022/12/26 07:08:59;;;;;;;7.67;6.97;;;;;;;7.77;67.21;102690.28;1673184;85;21014;-57
2022/12/26 07:11:29;;;;;;;7.53;6.83;;;;;;;7.81;66.86;102686.91;1610987;88;21078;-57
2022/12/26 07:13:57;;;;;;;6.70;6.10;;;;;;;7.82;66.92;102684.80;1581971;90;21846;-57
2022/12/26 07:16:23;;;;;;;7.30;6.60;;;;;;;7.87;66.73;102688.33;1594132;89;21176;-57
2022/12/26 07:18:55;;;;;;;7.05;6.17;;;;;;;7.87;66.28;102683.15;1607061;88;21054;-57
2022/12/26 07:21:22;;;;;;;6.60;6.00;;;;;;;7.87;66.37;102688.33;1586105;89;21593;-57
2022/12/26 07:23:49;;;;;;;6.65;5.95;;;;;;;7.87;66.18;102687.03;1586625;89;21479;-57
2022/12/26 07:26:16;;;;;;;7.28;6.58;;;;;;;7.90;65.90;102680.63;1614995;88;21121;-57
2022/12/26 07:28:43;;;;;;;6.67;6.03;;;;;;;7.88;65.58;102674.95;1585875;90;21063;-57
2022/12/26 07:31:18;;;;;;;7.33;5.87;;;;;;;7.88;65.55;102682.73;1585076;89;21788;-57
2022/12/26 07:33:49;;;;;;;7.33;6.55;;;;;;;7.83;65.11;102676.16;1611487;88;21533;-58
2022/12/26 07:36:17;;;;;;;6.80;6.10;;;;;;;7.75;65.07;102673.83;1613606;88;21022;-59
2022/12/26 07:38:45;;;;;;;6.92;6.22;;;;;;;7.74;65.28;102677.28;1598256;87;21086;-58
2022/12/26 07:43:57;;;;;;;6.22;5.62;;;;;;;7.78;65.25;102677.80;1632770;87;21514;-58
2022/12/26 07:46:23;;;;;;;6.35;5.65;;;;;;;7.81;64.80;102676.55;1603231;89;21604;-58
2022/12/26 07:48:50;;;;;;;7.05;6.35;;;;;;;7.82;64.67;102682.61;1602968;89;21074;-58
2022/12/26 07:51:16;;;;;;;6.50;5.90;;;;;;;7.78;64.25;102685.58;1632268;87;21075;-58
2022/12/26 07:53:43;;;;;;;6.90;6.20;;;;;;;7.74;64.31;102691.54;1600666;89;21090;-58
2022/12/26 07:56:10;;;;;;;6.55;5.95;;;;;;;7.71;64.42;102688.87;1600371;89;21055;-58
2022/12/26 07:58:36;;;;;;;7.33;6.55;;;;;;;7.73;64.51;102687.63;1652613;86;21060;-58
2022/12/26 08:01:05;;;;;;;7.25;5.95;;;;;;;7.76;64.54;102685.97;1657801;85;21106;-58
2022/12/26 08:03:33;;;;;;;6.17;5.65;;;;;;;7.81;64.56;102686.91;1657610;84;21149;-58
2022/12/26 08:05:59;;;;;;;6.60;5.85;;;;;;;7.83;64.53;102689.11;1671258;86;21080;-58
2022/12/26 08:08:26;;;;;;;7.47;6.67;;;;;;;7.87;64.35;102701.29;1686997;83;21111;-58
2022/12/26 08:10:59;;;;;;;6.62;6.05;;;;;;;7.91;64.00;102699.20;1693113;84;21115;-59
2022/12/26 08:13:27;;;;;;;6.70;6.10;;;;;;;7.92;63.78;102699.68;1645774;87;21574;-58
2022/12/26 08:15:55;;;;;;;6.30;5.70;;;;;;;7.90;63.81;102698.77;1641966;86;21077;-58
2022/12/26 08:18:21;;;;;;;6.85;5.95;;;;;;;7.93;63.53;102707.89;1638513;87;21586;-58
2022/12/26 08:20:48;;;;;;;6.92;6.22;;;;;;;7.94;63.66;102700.99;1630734;87;21133;-58
2022/12/26 08:23:15;;;;;;;7.87;6.65;;;;;;;7.95;63.48;102710.53;1625057;86;21509;-58
2022/12/26 08:25:42;;;;;;;6.95;6.25;;;;;;;7.96;63.40;102707.08;1625142;87;21082;-58
2022/12/26 08:28:09;;;;;;;9.65;6.45;;;;;;;7.96;63.35;102697.59;1618920;87;21114;-58
2022/12/26 08:30:40;;;;;;;7.37;6.47;;;;;;;7.98;63.46;102695.03;1638760;85;21070;-58
2022/12/26 08:33:07;;;;;;;6.33;5.72;;;;;;;8.02;63.21;102696.42;1638582;87;21053;-58
2022/12/26 08:35:35;;;;;;;8.15;6.35;;;;;;;8.04;63.11;102705.09;1611341;89;21101;-58
2022/12/26 08:38:02;;;;;;;6.35;5.75;;;;;;;8.05;62.82;102707.28;1638669;87;21029;-58
2022/12/26 08:40:29;;;;;;;6.53;5.92;;;;;;;8.06;62.91;102718.08;1638592;87;21132;-58
2022/12/26 08:42:56;;;;;;;6.40;5.67;;;;;;;8.11;62.75;102722.54;1623327;87;21509;-58
2022/12/26 08:45:22;;;;;;;6.37;5.78;;;;;;;8.16;62.54;102708.37;1638278;87;21097;-58
2022/12/26 08:47:50;;;;;;;6.50;5.42;;;;;;;8.21;62.42;102703.71;1632938;87;21161;-58
2022/12/26 08:50:17;;;;;;;7.20;6.30;;;;;;;8.27;62.07;102718.95;1611342;87;21157;-59
2022/12/26 08:52:43;;;;;;;7.25;6.12;;;;;;;8.27;61.86;102712.05;1638743;87;21042;-58
2022/12/26 08:55:10;;;;;;;6.15;5.55;;;;;;;8.28;61.36;102710.34;1638606;87;21114;-58
2022/12/26 08:57:36;;;;;;;6.42;5.42;;;;;;;8.30;61.26;102713.84;1627255;87;21085;-58
2022/12/26 09:00:05;;;;;;;5.85;5.28;;;;;;;8.32;60.98;102706.95;1630685;87;21561;-58
2022/12/26 09:02:32;;;;;;;6.05;5.40;;;;;;;8.31;60.62;102700.89;1625329;87;21517;-58
2022/12/26 09:04:59;;;;;;;6.92;6.05;;;;;;;8.31;60.50;102703.48;1669581;84;21092;-58
2022/12/26 09:07:26;;;;;;;6.55;5.60;;;;;;;8.34;60.15;102709.16;1683199;85;21017;-58
2022/12/26 09:09:52;;;;;;;5.67;5.03;;;;;;;8.34;59.81;102706.56;1693989;84;21068;-58
2022/12/26 09:12:19;;;;;;;5.67;5.05;;;;;;;8.32;59.61;102700.47;1696688;84;21543;-58
2022/12/26 09:14:46;;;;;;;5.67;4.55;;;;;;;8.32;59.48;102699.17;1698299;83;21056;-58
2022/12/26 09:17:13;;;;;;;6.78;4.97;;;;;;;8.35;59.52;102697.50;1698548;84;21079;-58
2022/12/26 09:19:40;;;;;;;6.40;5.72;;;;;;;8.40;59.16;102696.30;1699898;84;21515;-57
2022/12/26 09:24:52;;;;;;;5.53;4.87;;;;;;;8.49;58.51;102692.58;1699510;84;21110;-58
2022/12/26 09:27:20;;;;;;;5.40;4.90;;;;;;;8.52;58.15;102706.47;1698068;84;21630;-58
2022/12/26 09:29:46;;;;;;;5.08;4.58;;;;;;;8.53;58.13;102711.24;1688173;83;21544;-58
2022/12/26 09:32:13;;;;;;;6.15;4.83;;;;;;;8.58;57.85;102705.69;1698679;83;21005;-58
2022/12/26 09:34:40;;;;;;;4.90;4.40;;;;;;;8.62;57.51;102699.70;1698787;84;21111;-58
2022/12/26 09:37:08;;;;;;;5.35;4.45;;;;;;;8.56;57.27;102694.41;1696259;83;21119;-58
2022/12/26 09:39:35;;;;;;;5.72;4.83;;;;;;;8.50;57.04;102693.02;1698348;83;21095;-59
2022/12/26 09:42:28;;;;;;;6.97;5.00;;;;;;;8.52;56.85;102692.62;1694789;84;21025;-58
2022/12/26 09:45:15;;;;;;;5.85;5.35;;;;;;;8.49;56.78;102695.17;1695717;84;21087;-58
2022/12/26 09:47:53;;;;;;;6.00;4.72;;;;;;;8.49;56.81;102688.69;1697525;84;21507;-58
2022/12/26 09:50:27;;;;;;;6.53;5.90;;;;;;;8.49;56.73;102674.42;1699720;84;21040;-58
2022/12/26 09:53:08;;;;;;;6.62;5.92;;;;;;;8.48;56.78;102663.58;1693500;84;21543;-59
2022/12/26 09:55:49;;;;;;;6.05;5.45;;;;;;;8.51;56.77;102659.75;1650377;87;21054;-59
2022/12/26 09:58:33;;;;;;;6.12;4.90;;;;;;;8.55;56.70;102653.77;1579856;90;21627;-57
2022/12/26 10:01:17;;;;;;;6.50;5.08;;;;;;;8.59;56.68;102663.34;1574310;89;21102;-58
2022/12/26 10:03:48;;;;;;;6.25;5.30;;;;;;;8.65;56.77;102668.22;1572256;90;21138;-58
2022/12/26 10:06:28;;;;;;;6.87;5.80;;;;;;;8.72;56.46;102658.36;1540836;92;21089;-58
2022/12/26 10:09:24;;;;;;;5.30;4.80;;;;;;;8.74;56.18;102650.59;1508489;95;21670;-58
2022/12/26 11:16:10;;;;;;;10.98;7.80;;;;;;;6.80;64.43;102624.28;1795164;78;26577;-50
2022/12/26 11:18:49;;;;;;;8.95;7.58;;;;;;;7.90;59.88;102613.66;1752073;80;21058;-50
2022/12/26 11:21:22;;;;;;;8.18;6.37;;;;;;;8.16;58.89;102618.46;1714496;82;21528;-50
2022/12/26 11:23:51;;;;;;;7.45;6.10;;;;;;;8.38;58.40;102621.47;1715072;82;21006;-50
2022/12/26 11:26:28;;;;;;;6.85;6.03;;;;;;;8.56;58.11;102621.77;1717699;82;21026;-51
2022/12/26 11:29:19;;;;;;;6.17;5.40;;;;;;;8.74;57.82;102619.03;1702563;82;21021;-50
2022/12/26 11:32:00;;;;;;;6.33;5.30;;;;;;;8.94;57.35;102610.26;1710465;82;21097;-50
2022/12/26 11:34:44;;;;;;;6.72;5.55;;;;;;;9.11;56.87;102604.85;1693427;82;21074;-50
2022/12/26 11:37:30;;;;;;;6.10;5.40;;;;;;;9.24;56.44;102608.07;1704866;82;21069;-50
2022/12/26 11:39:56;;;;;;;6.75;5.08;;;;;;;9.33;56.19;102611.22;1669555;85;21027;-50
2022/12/26 11:42:24;;;;;;;6.42;5.30;;;;;;;9.38;56.17;102604.34;1663603;85;21557;-50
2022/12/26 11:44:53;;;;;;;5.70;5.10;;;;;;;9.41;56.18;102600.49;1656166;85;21336;-51
2022/12/26 11:47:24;;;;;;;6.25;5.03;;;;;;;9.45;56.20;102590.58;1646755;85;21077;-50
2022/12/26 11:50:03;;;;;;;5.17;4.67;;;;;;;9.47;56.07;102607.94;1663896;84;21430;-50
2022/12/26 11:52:47;;;;;;;6.05;5.37;;;;;;;9.51;55.93;102614.92;1581145;89;21580;-50
2022/12/26 11:55:36;;;;;;;5.95;5.35;;;;;;;9.55;55.86;102618.00;1622440;86;21069;-50
2022/12/26 11:58:18;;;;;;;5.97;5.33;;;;;;;9.60;55.68;102618.91;1634640;86;21095;-50
2022/12/26 12:01:04;;;;;;;6.80;5.95;;;;;;;9.62;55.59;102612.00;1580576;89;21089;-50
2022/12/26 12:03:41;;;;;;;5.87;5.12;;;;;;;9.64;55.54;102607.69;1580671;89;21114;-50
2022/12/26 12:06:35;;;;;;;6.40;5.17;;;;;;;9.66;55.45;102604.71;1539965;91;21767;-50
2022/12/26 12:09:46;;;;;;;7.17;5.30;;;;;;;9.68;55.39;102618.59;1553257;91;21118;-50
2022/12/26 12:12:45;;;;;;;8.10;6.10;;;;;;;9.71;55.37;102622.52;1540057;91;21152;-50
2022/12/26 12:15:26;;;;;;;6.00;5.15;;;;;;;9.76;55.41;102623.45;1554990;91;21592;-49
2022/12/26 12:18:09;;;;;;;6.28;5.37;;;;;;;9.82;55.26;102618.31;1513750;94;21124;-50
2022/12/26 12:20:48;;;;;;;6.65;5.67;;;;;;;9.87;55.21;102625.30;1440196;98;21621;-49
2022/12/26 12:23:37;;;;;;;7.17;5.90;;;;;;;9.92;55.05;102621.00;1366557;103;21160;-50
2022/12/26 12:26:24;;;;;;;6.53;5.50;;;;;;;9.94;54.67;102619.28;1369122;103;21160;-49
2022/12/26 12:29:32;;;;;;;6.37;5.35;;;;;;;9.92;54.57;102621.88;1365858;103;21795;-49
2022/12/26 12:32:16;;;;;;;8.88;7.45;;;;;;;9.90;54.52;102615.79;1377939;103;21637;-49
2022/12/26 12:35:23;;;;;;;8.75;6.97;;;;;;;9.88;54.44;102623.13;1368899;103;21159;-49
2022/12/26 12:38:17;;;;;;;8.08;6.97;;;;;;;9.84;54.54;102614.01;1371490;103;21746;-49
2022/12/26 12:40:51;;;;;;;8.93;6.40;;;;;;;9.81;54.71;102628.67;1372956;103;21223;-49
2022/12/26 12:43:27;;;;;;;6.97;6.00;;;;;;;9.79;54.81;102631.27;1383547;103;21199;-49
2022/12/26 12:46:02;;;;;;;7.33;6.45;;;;;;;9.80;54.96;102642.12;1389310;102;21655;-49
2022/12/26 12:48:55;;;;;;;7.22;6.45;;;;;;;9.81;54.98;102642.56;1392340;101;21209;-50
2022/12/26 12:51:37;;;;;;;7.80;7.00;;;;;;;9.81;54.81;102642.98;1399660;101;21634;-50
2022/12/26 12:54:39;;;;;;;6.53;5.53;;;;;;;9.79;54.80;102642.97;1408481;100;21684;-49
2022/12/26 12:57:40;;;;;;;6.43;5.70;;;;;;;9.78;54.79;102647.73;1494563;90;21633;-50
2022/12/26 13:00:22;;;;;;;6.75;5.85;;;;;;;9.78;54.83;102654.23;1613975;84;21093;-49
2022/12/26 13:03:12;;;;;;;6.22;5.55;;;;;;;9.77;55.02;102645.98;1642671;86;21084;-49
2022/12/26 13:05:50;;;;;;;7.40;6.00;;;;;;;9.80;55.10;102647.33;1607295;86;21122;-49
2022/12/26 13:08:43;;;;;;;6.47;5.87;;;;;;;9.81;55.13;102647.75;1631112;86;21047;-49
2022/12/26 13:11:25;;;;;;;6.00;5.33;;;;;;;9.83;54.92;102648.64;1570369;89;22524;-50
2022/12/26 13:13:57;;;;;;;6.42;5.72;;;;;;;9.87;54.61;102646.09;1566568;90;21135;-49
2022/12/26 13:16:42;;;;;;;8.85;7.42;;;;;;;9.88;54.64;102645.22;1575577;89;21103;-49
2022/12/26 13:19:09;;;;;;;7.10;6.35;;;;;;;9.92;54.62;102632.70;1568084;89;21113;-50
2022/12/26 13:21:36;;;;;;;10.60;8.28;;;;;;;9.93;54.60;102622.34;1577704;89;21625;-49
2022/12/26 13:24:25;;;;;;;7.45;6.42;;;;;;;9.96;54.62;102627.97;1647808;86;21545;-50
2022/12/26 13:27:30;;;;;;;10.78;7.35;;;;;;;9.98;54.47;102626.26;1645697;86;21179;-49
2022/12/26 13:29:57;;;;;;;9.60;7.80;;;;;;;10.03;54.33;102635.00;1625247;86;21129;-49
2022/12/26 13:32:27;;;;;;;8.05;6.87;;;;;;;10.08;54.15;102645.00;1630130;86;21109;-49
2022/12/26 13:34:57;;;;;;;10.93;6.75;;;;;;;10.11;54.10;102652.47;1643768;86;21620;-49
2022/12/26 13:37:47;;;;;;;6.67;5.97;;;;;;;10.13;53.93;102660.27;1596493;89;21092;-49
2022/12/26 13:40:19;;;;;;;7.30;6.10;;;;;;;10.13;53.93;102649.87;1510557;92;21094;-50
2022/12/26 13:45:56;;;;;;;8.55;6.87;;;;;;;10.11;54.00;102638.58;1507631;94;21106;-49
2022/12/26 13:48:31;;;;;;;11.33;9.58;;;;;;;10.08;54.17;102625.49;1491071;94;21134;-49
2022/12/26 13:51:00;;;;;;;10.13;8.30;;;;;;;10.04;54.32;102608.11;1507726;94;22879;-50
2022/12/26 13:53:36;;;;;;;8.20;7.08;;;;;;;10.00;54.57;102596.81;1501473;94;21168;-49
2022/12/26 13:56:20;;;;;;;7.72;6.08;;;;;;;9.98;54.70;102602.85;1504352;94;21105;-49
2022/12/26 13:59:24;;;;;;;6.12;5.53;;;;;;;9.95;54.95;102612.82;1502283;94;21524;-49
2022/12/26 14:02:49;;;;;;;6.97;5.85;;;;;;;9.93;55.16;102604.55;1462509;96;21148;-49
2022/12/26 14:05:42;;;;;;;6.17;5.45;;;;;;;9.91;55.41;102604.97;1467126;96;22289;-49
2022/12/26 14:08:52;;;;;;;6.72;6.00;;;;;;;9.89;55.57;102615.78;1481831;96;21153;-50
2022/12/26 14:11:51;;;;;;;6.62;5.92;;;;;;;9.87;55.70;102604.49;1456036;96;21162;-50
2022/12/26 14:14:45;;;;;;;5.85;5.25;;;;;;;9.81;55.78;102603.56;1455554;98;21208;-49
2022/12/26 14:17:37;;;;;;;7.15;5.95;;;;;;;9.77;55.86;102597.88;1415805;97;21139;-50
2022/12/26 14:20:41;;;;;;;8.68;6.70;;;;;;;9.73;56.14;102576.61;1453429;97;21120;-49
2022/12/26 14:23:25;;;;;;;7.65;6.67;;;;;;;9.66;56.46;102587.81;1429869;98;21153;-50
2022/12/26 14:26:37;;;;;;;9.18;7.28;;;;;;;9.59;56.84;102610.68;1412232;100;21178;-49
2022/12/26 14:29:30;;;;;;;10.55;7.00;;;;;;;9.56;57.17;102589.84;1402669;100;21119;-50
2022/12/26 14:32:11;;;;;;;7.95;6.55;;;;;;;9.54;57.41;102603.24;1384771;101;21148;-49
2022/12/26 14:35:02;;;;;;;9.18;8.18;;;;;;;9.55;57.66;102601.11;1439733;98;21127;-49
2022/12/26 14:37:51;;;;;;;10.90;8.28;;;;;;;9.56;57.77;102596.34;1454838;97;21155;-50
2022/12/26 14:40:26;;;;;;;17.95;13.50;;;;;;;9.57;57.83;102605.89;1368233;103;21174;-49
2022/12/26 14:43:21;;;;;;;13.70;10.95;;;;;;;9.57;57.84;102598.09;1403802;101;21091;-49
2022/12/26 14:45:50;;;;;;;12.70;10.13;;;;;;;9.59;57.80;102596.39;1450314;97;21148;-50
2022/12/26 14:48:22;;;;;;;10.85;8.85;;;;;;;9.59;57.70;102593.78;1471734;95;21159;-49
2022/12/26 14:50:56;;;;;;;15.60;12.50;;;;;;;9.59;57.73;102593.78;1454358;97;21135;-50
2022/12/26 14:53:34;;;;;;;16.90;14.55;;;;;;;9.56;57.75;102583.80;1474288;94;21199;-49
2022/12/26 14:56:10;;;;;;;12.15;9.93;;;;;;;9.53;57.86;102570.33;1539817;91;21132;-49
2022/12/26 14:58:41;;;;;;;9.90;8.80;;;;;;;9.52;57.94;102563.38;1540530;91;21695;-48
2022/12/26 15:01:16;;;;;;;9.43;8.45;;;;;;;9.50;58.04;102567.68;1546245;91;21125;-49
2022/12/26 15:03:51;;;;;;;13.55;10.98;;;;;;;9.49;58.11;102584.14;1545819;91;21148;-49
2022/12/26 15:06:24;;;;;;;12.98;11.65;;;;;;;9.48;58.30;102590.63;1571959;90;21063;-49
2022/12/26 15:09:42;;;;;;;12.53;10.82;;;;;;;9.48;58.36;102592.78;1574874;90;21591;-50
2022/12/26 15:12:42;;;;;;;10.82;9.60;;;;;;;9.48;58.47;102590.18;1539931;91;21088;-49
2022/12/26 15:15:57;;;;;;;12.75;10.65;;;;;;;9.51;58.55;102595.43;1607288;88;21166;-49
2022/12/26 15:18:46;;;;;;;15.88;12.47;;;;;;;9.51;58.66;102595.84;1687894;81;21089;-49